createdAt,value
2018-07-27T00:02:10.539Z,30.09
2018-07-27T00:04:36.509Z,29.77
2018-07-27T00:07:02.478Z,29.39
2018-07-27T00:09:28.432Z,29.51
2018-07-27T00:11:54.401Z,29.72
2018-07-27T00:14:20.356Z,29.81
2018-07-27T00:16:46.292Z,29.86
2018-07-27T00:19:12.243Z,29.80
2018-07-27T00:21:38.205Z,29.77
2018-07-27T00:24:04.133Z,29.67
2018-07-27T00:26:30.071Z,29.79
2018-07-27T00:28:56.007Z,29.80
2018-07-27T00:31:21.970Z,29.83
2018-07-27T00:33:47.906Z,29.86
2018-07-27T00:36:13.865Z,29.84
2018-07-27T00:38:39.825Z,29.58
2018-07-27T00:41:05.785Z,29.35
2018-07-27T00:43:31.736Z,29.35
2018-07-27T00:45:57.700Z,29.43
2018-07-27T00:48:23.672Z,29.33
2018-07-27T00:50:49.618Z,28.96
2018-07-27T00:53:15.557Z,28.76
2018-07-27T00:55:41.509Z,28.99
2018-07-27T00:58:07.497Z,28.98
2018-07-27T01:00:33.454Z,28.71
2018-07-27T01:02:59.413Z,28.58
2018-07-27T01:05:25.363Z,28.56
2018-07-27T01:07:51.315Z,28.37
2018-07-27T01:10:17.310Z,28.37
2018-07-27T01:12:43.278Z,28.32
2018-07-27T01:15:09.253Z,28.44
2018-07-27T01:17:35.206Z,28.38
2018-07-27T01:20:01.147Z,28.32
2018-07-27T01:22:27.085Z,28.31
2018-07-27T01:24:53.041Z,28.32
2018-07-27T01:27:18.995Z,28.26
2018-07-27T01:29:45.181Z,28.37
2018-07-27T01:32:11.121Z,28.52
2018-07-27T01:34:37.087Z,28.44
2018-07-27T01:37:03.157Z,28.43
2018-07-27T01:39:29.135Z,28.32
2018-07-27T01:41:55.072Z,28.27
2018-07-27T01:44:21.013Z,28.47
2018-07-27T01:46:46.958Z,28.51
2018-07-27T01:49:12.915Z,28.54
2018-07-27T01:51:38.837Z,28.55
2018-07-27T01:54:04.796Z,28.68
2018-07-27T01:56:30.766Z,28.49
2018-07-27T01:58:56.708Z,28.53
2018-07-27T02:01:22.689Z,28.68
2018-07-27T02:03:48.660Z,28.57
2018-07-27T02:06:14.604Z,28.48
2018-07-27T02:08:40.551Z,28.53
2018-07-27T02:11:06.497Z,28.49
2018-07-27T02:13:32.445Z,28.54
2018-07-27T02:15:58.410Z,28.51
2018-07-27T02:18:24.384Z,28.33
2018-07-27T02:20:50.338Z,28.18
2018-07-27T02:23:16.578Z,28.35
2018-07-27T02:25:42.572Z,28.20
2018-07-27T02:28:08.492Z,28.40
2018-07-27T02:30:34.418Z,28.55
2018-07-27T02:33:00.367Z,28.49
2018-07-27T02:35:26.323Z,28.29
2018-07-27T02:37:52.254Z,28.30
2018-07-27T02:40:18.201Z,28.28
2018-07-27T02:42:44.140Z,28.23
2018-07-27T02:45:10.126Z,28.21
2018-07-27T02:47:36.088Z,28.10
2018-07-27T02:50:02.027Z,28.08
2018-07-27T02:52:27.977Z,28.28
2018-07-27T02:54:53.936Z,28.29
2018-07-27T02:57:19.898Z,28.23
2018-07-27T02:59:45.856Z,28.30
2018-07-27T03:02:11.803Z,28.37
2018-07-27T03:04:37.791Z,28.41
2018-07-27T03:07:03.750Z,28.39
2018-07-27T03:09:29.706Z,28.23
2018-07-27T03:11:55.684Z,28.27
2018-07-27T03:14:21.613Z,28.31
2018-07-27T03:16:47.547Z,28.28
2018-07-27T03:19:13.552Z,28.23
2018-07-27T03:21:39.500Z,28.33
2018-07-27T03:24:05.470Z,28.51
2018-07-27T03:26:31.413Z,28.40
2018-07-27T03:28:57.396Z,28.20
2018-07-27T03:31:23.352Z,28.15
2018-07-27T03:33:49.409Z,28.00
2018-07-27T03:36:15.369Z,27.86
2018-07-27T03:38:41.492Z,28.00
2018-07-27T03:41:07.431Z,28.13
2018-07-27T03:43:33.392Z,28.05
2018-07-27T03:45:59.354Z,27.78
2018-07-27T03:48:25.291Z,27.63
2018-07-27T03:50:51.254Z,27.47
2018-07-27T03:53:17.220Z,27.51
2018-07-27T03:55:43.170Z,27.45
2018-07-27T03:58:09.124Z,27.58
2018-07-27T04:00:35.095Z,27.72
2018-07-27T04:03:01.365Z,27.75
2018-07-27T04:05:27.361Z,27.69
2018-07-27T04:07:53.322Z,27.55
2018-07-27T04:10:19.267Z,27.20
2018-07-27T04:12:45.254Z,27.39
2018-07-27T04:15:11.193Z,27.58
2018-07-27T04:17:37.134Z,27.41
2018-07-27T04:20:03.093Z,27.24
2018-07-27T04:22:29.087Z,27.23
2018-07-27T04:24:55.021Z,27.26
2018-07-27T04:27:20.973Z,27.26
2018-07-27T04:29:46.921Z,27.14
2018-07-27T04:32:12.911Z,27.17
2018-07-27T04:34:38.863Z,27.31
2018-07-27T04:37:04.838Z,27.61
2018-07-27T04:39:30.804Z,27.86
2018-07-27T04:41:56.759Z,28.13
2018-07-27T04:44:22.708Z,28.34
2018-07-27T04:46:48.679Z,28.24
2018-07-27T04:49:14.660Z,28.35
2018-07-27T04:51:40.615Z,28.32
2018-07-27T04:54:06.593Z,28.36
2018-07-27T04:56:32.570Z,28.43
2018-07-27T04:58:58.576Z,28.40
2018-07-27T05:01:24.578Z,28.44
2018-07-27T05:03:50.528Z,28.30
2018-07-27T05:06:16.476Z,28.44
2018-07-27T05:08:42.440Z,28.52
2018-07-27T05:11:08.405Z,28.51
2018-07-27T05:13:34.385Z,28.48
2018-07-27T05:16:00.396Z,28.44
2018-07-27T05:18:26.334Z,28.60
2018-07-27T05:20:52.277Z,28.62
2018-07-27T05:23:18.228Z,28.76
2018-07-27T05:25:44.172Z,28.78
2018-07-27T05:28:10.417Z,28.52
2018-07-27T05:30:37.851Z,28.36
2018-07-27T05:33:03.816Z,27.69
2018-07-27T05:35:29.772Z,27.72
2018-07-27T05:37:55.725Z,27.97
2018-07-27T05:40:21.660Z,27.86
2018-07-27T05:42:47.635Z,27.88
2018-07-27T05:45:13.591Z,28.14
2018-07-27T05:47:39.651Z,28.26
2018-07-27T05:50:05.672Z,28.55
2018-07-27T05:52:31.634Z,28.59
2018-07-27T05:54:57.591Z,28.71
2018-07-27T05:57:23.545Z,28.78
2018-07-27T05:59:49.552Z,28.82
2018-07-27T06:02:15.499Z,29.00
2018-07-27T06:04:41.466Z,29.01
2018-07-27T06:07:07.405Z,29.00
2018-07-27T06:09:33.358Z,28.80
2018-07-27T06:11:59.339Z,28.82
2018-07-27T06:14:26.401Z,28.63
2018-07-27T06:16:52.376Z,28.44
2018-07-27T06:19:18.352Z,28.41
2018-07-27T06:21:44.308Z,28.37
2018-07-27T06:24:10.279Z,28.39
2018-07-27T06:26:36.248Z,28.51
2018-07-27T06:29:02.204Z,28.50
2018-07-27T06:31:28.147Z,28.56
2018-07-27T06:33:54.140Z,28.67
2018-07-27T06:36:20.102Z,28.85
2018-07-27T06:38:46.028Z,28.96
2018-07-27T06:41:11.965Z,28.71
2018-07-27T06:43:37.917Z,28.79
2018-07-27T06:46:03.852Z,29.08
2018-07-27T06:48:30.032Z,29.29
2018-07-27T06:50:56.073Z,29.35
2018-07-27T06:53:22.016Z,29.51
2018-07-27T06:55:48.001Z,29.67
2018-07-27T06:58:13.964Z,29.84
2018-07-27T07:00:39.914Z,29.95
2018-07-27T07:03:05.843Z,30.04
2018-07-27T07:05:31.824Z,30.08
2018-07-27T07:07:57.756Z,30.27
2018-07-27T07:10:23.704Z,30.48
2018-07-27T07:12:49.638Z,30.72
2018-07-27T07:15:15.781Z,31.12
2018-07-27T07:17:41.719Z,32.01
2018-07-27T07:20:07.665Z,32.59
2018-07-27T07:22:33.615Z,33.13
2018-07-27T07:24:59.540Z,33.53
2018-07-27T07:27:25.506Z,33.90
2018-07-27T07:29:51.496Z,34.24
2018-07-27T07:32:17.454Z,34.53
2018-07-27T07:34:43.397Z,34.55
2018-07-27T07:37:09.388Z,34.57
2018-07-27T07:39:35.370Z,34.99
2018-07-27T07:42:01.585Z,35.31
2018-07-27T07:44:27.583Z,35.62
2018-07-27T07:46:53.518Z,35.79
2018-07-27T07:49:19.512Z,36.00
2018-07-27T07:51:45.441Z,36.28
2018-07-27T07:54:11.411Z,36.49
2018-07-27T07:56:37.342Z,36.59
2018-07-27T07:59:04.237Z,36.84
2018-07-27T08:01:30.233Z,37.05
2018-07-27T08:03:56.254Z,37.30
2018-07-27T08:06:22.298Z,37.50
2018-07-27T08:08:48.304Z,37.73
2018-07-27T08:11:14.297Z,37.89
2018-07-27T08:13:40.223Z,37.03
2018-07-27T08:18:38.667Z,36.07
2018-07-27T08:21:04.669Z,35.83
2018-07-27T08:23:30.620Z,35.65
2018-07-27T08:25:56.715Z,35.54
2018-07-27T08:28:22.641Z,35.39
2018-07-27T08:30:48.614Z,35.25
2018-07-27T08:33:14.547Z,35.04
2018-07-27T08:35:42.824Z,34.89
2018-07-27T08:38:08.776Z,34.71
2018-07-27T08:40:34.731Z,34.54
2018-07-27T08:43:00.673Z,34.46
2018-07-27T08:45:26.616Z,34.38
2018-07-27T08:47:52.590Z,34.34
2018-07-27T08:50:18.521Z,34.30
2018-07-27T08:52:44.514Z,34.27
2018-07-27T08:55:10.473Z,34.21
2018-07-27T08:57:36.449Z,34.17
2018-07-27T09:00:02.435Z,34.13
2018-07-27T09:02:29.056Z,34.11
2018-07-27T09:04:55.013Z,34.07
2018-07-27T09:07:20.971Z,34.06
2018-07-27T09:09:46.965Z,34.04
2018-07-27T09:12:12.909Z,34.02
2018-07-27T09:14:38.912Z,33.99
2018-07-27T09:17:04.948Z,33.93
2018-07-27T09:19:31.006Z,33.89
2018-07-27T09:21:56.933Z,33.86
2018-07-27T09:24:23.079Z,33.87
2018-07-27T09:26:48.861Z,33.88
2018-07-27T09:29:14.826Z,33.85
2018-07-27T09:31:40.784Z,33.85
2018-07-27T09:34:06.810Z,33.85
2018-07-27T09:36:32.753Z,33.82
2018-07-27T09:38:58.719Z,33.82
2018-07-27T09:41:24.700Z,33.76
2018-07-27T09:43:50.662Z,33.75
2018-07-27T09:46:16.611Z,33.73
2018-07-27T09:48:42.563Z,33.71
2018-07-27T09:51:08.519Z,33.71
2018-07-27T09:53:34.498Z,33.70
2018-07-27T09:56:00.455Z,33.48
2018-07-27T09:58:26.425Z,33.48
2018-07-27T10:00:52.373Z,33.39
2018-07-27T10:03:18.343Z,33.44
2018-07-27T10:05:44.318Z,33.51
2018-07-27T10:08:10.275Z,33.40
2018-07-27T10:10:36.261Z,33.30
2018-07-27T10:13:02.218Z,33.36
2018-07-27T10:15:28.210Z,33.43
2018-07-27T10:17:54.148Z,33.45
2018-07-27T10:20:20.158Z,33.49
2018-07-27T10:22:46.124Z,33.52
2018-07-27T10:25:12.100Z,33.58
2018-07-27T10:27:38.066Z,33.57
2018-07-27T10:30:04.042Z,33.54
2018-07-27T10:32:30.026Z,33.58
2018-07-27T10:34:55.985Z,33.60
2018-07-27T10:37:21.946Z,33.63
2018-07-27T10:39:47.921Z,33.52
2018-07-27T10:42:13.908Z,33.51
2018-07-27T10:44:39.863Z,33.55
2018-07-27T10:47:05.841Z,33.58
2018-07-27T10:49:31.810Z,33.58
2018-07-27T10:51:57.800Z,33.59
2018-07-27T10:54:23.799Z,33.59
2018-07-27T10:56:49.779Z,33.49
2018-07-27T10:59:15.725Z,33.30
2018-07-27T11:01:41.741Z,33.34
2018-07-27T11:04:07.711Z,33.38
2018-07-27T11:06:33.672Z,33.44
2018-07-27T11:08:59.672Z,33.45
2018-07-27T11:11:25.626Z,33.52
2018-07-27T11:13:51.619Z,33.44
2018-07-27T11:16:17.570Z,33.43
2018-07-27T11:18:43.510Z,33.33
2018-07-27T11:21:09.470Z,33.31
2018-07-27T11:23:35.404Z,33.04
2018-07-27T11:26:01.364Z,33.15
2018-07-27T11:28:27.343Z,33.17
2018-07-27T11:30:53.353Z,33.09
2018-07-27T11:33:19.331Z,33.19
2018-07-27T11:35:45.297Z,33.25
2018-07-27T11:38:11.244Z,33.05
2018-07-27T11:40:37.225Z,33.10
2018-07-27T11:43:03.201Z,33.16
2018-07-27T11:45:29.163Z,33.19
2018-07-27T11:47:55.117Z,33.31
2018-07-27T11:50:21.078Z,33.32
2018-07-27T11:52:47.028Z,33.18
2018-07-27T11:55:13.005Z,33.23
2018-07-27T11:57:38.975Z,33.32
2018-07-27T12:00:04.943Z,33.34
2018-07-27T12:02:30.920Z,33.38
2018-07-27T12:04:56.905Z,33.46
2018-07-27T12:07:22.846Z,33.46
2018-07-27T12:09:48.825Z,33.54
2018-07-27T12:12:14.794Z,33.59
2018-07-27T12:14:40.969Z,33.60
2018-07-27T12:17:06.741Z,33.59
2018-07-27T12:19:32.721Z,33.59
2018-07-27T12:21:58.691Z,33.62
2018-07-27T12:24:24.669Z,33.57
2018-07-27T12:26:50.662Z,33.57
2018-07-27T12:29:16.698Z,33.54
2018-07-27T12:31:42.640Z,33.48
2018-07-27T12:34:08.636Z,33.44
2018-07-27T12:36:34.642Z,33.44
2018-07-27T12:39:00.665Z,33.41
2018-07-27T12:41:26.643Z,33.37
2018-07-27T12:43:52.629Z,33.41
2018-07-27T12:46:18.620Z,33.42
2018-07-27T12:48:44.566Z,33.42
2018-07-27T12:51:10.560Z,33.44
2018-07-27T12:53:36.575Z,33.42
2018-07-27T12:56:02.629Z,33.43
2018-07-27T12:58:28.649Z,33.44
2018-07-27T13:00:54.778Z,33.46
2018-07-27T13:03:20.832Z,33.43
2018-07-27T13:05:46.817Z,33.46
2018-07-27T13:08:12.823Z,33.42
2018-07-27T13:10:38.866Z,33.49
2018-07-27T13:13:09.563Z,33.56
2018-07-27T13:15:35.603Z,33.57
2018-07-27T13:18:01.661Z,33.61
2018-07-27T13:20:27.677Z,33.62
2018-07-27T13:22:53.683Z,33.62
2018-07-27T13:25:19.670Z,33.61
2018-07-27T13:27:45.675Z,33.65
2018-07-27T13:30:11.719Z,33.65
2018-07-27T13:32:37.911Z,33.67
2018-07-27T13:37:35.204Z,33.73
2018-07-27T13:42:32.895Z,33.82
2018-07-27T13:44:58.940Z,33.84
2018-07-27T13:47:25.814Z,33.87
2018-07-27T13:49:51.798Z,33.88
2018-07-27T13:52:17.752Z,33.89
2018-07-27T13:54:43.765Z,33.91
2018-07-27T13:57:10.114Z,33.83
2018-07-27T13:59:36.131Z,33.79
2018-07-27T14:02:02.269Z,33.75
2018-07-27T14:04:28.280Z,33.73
2018-07-27T14:06:54.300Z,33.74
2018-07-27T14:09:20.413Z,33.80
2018-07-27T14:11:46.420Z,33.79
2018-07-27T14:14:13.438Z,33.82
2018-07-27T14:16:39.426Z,33.75
2018-07-27T14:19:05.406Z,33.33
2018-07-27T14:21:31.379Z,32.90
2018-07-27T14:23:57.356Z,32.84
2018-07-27T14:28:56.356Z,32.70
2018-07-27T14:31:25.802Z,32.73
2018-07-27T14:38:55.043Z,32.56
2018-07-27T14:41:21.006Z,32.66
2018-07-27T14:43:46.981Z,32.66
2018-07-27T14:46:13.032Z,32.57
2018-07-27T14:48:39.068Z,32.51
2018-07-27T14:51:05.067Z,32.44
2018-07-27T14:53:32.251Z,32.48
2018-07-27T14:55:58.278Z,32.62
2018-07-27T14:58:24.308Z,32.69
2018-07-27T15:00:55.708Z,32.66
2018-07-27T15:03:21.850Z,32.57
2018-07-27T15:05:47.908Z,32.57
2018-07-27T15:08:13.943Z,32.63
2018-07-27T15:10:39.999Z,32.63
2018-07-27T15:13:06.131Z,32.57
2018-07-27T15:15:33.181Z,32.50
2018-07-27T15:17:59.166Z,32.51
2018-07-27T15:20:25.208Z,32.42
2018-07-27T15:22:51.183Z,32.39
2018-07-27T15:25:17.214Z,32.42
2018-07-27T15:27:43.295Z,32.45
2018-07-27T15:30:10.392Z,32.39
2018-07-27T15:32:36.413Z,32.39
2018-07-27T15:35:02.637Z,32.36
2018-07-27T15:37:28.621Z,32.29
2018-07-27T15:39:54.616Z,32.07
2018-07-27T15:42:20.592Z,31.91
2018-07-27T15:44:46.546Z,31.82
2018-07-27T15:47:12.529Z,31.74
2018-07-27T15:49:38.527Z,31.73
2018-07-27T15:52:04.504Z,31.74
2018-07-27T15:54:30.470Z,31.63
2018-07-27T15:56:56.464Z,31.59
2018-07-27T15:59:22.456Z,31.62
2018-07-27T16:01:48.417Z,31.66
2018-07-27T16:04:14.384Z,31.66
2018-07-27T16:06:40.357Z,31.66
2018-07-27T16:09:06.380Z,31.65
2018-07-27T16:11:32.423Z,31.61
2018-07-27T16:13:58.494Z,31.57
2018-07-27T16:16:24.458Z,31.57
2018-07-27T16:18:50.420Z,31.66
2018-07-27T16:21:16.370Z,31.63
2018-07-27T16:23:42.376Z,31.61
2018-07-27T16:26:08.506Z,31.61
2018-07-27T16:28:34.441Z,31.53
2018-07-27T16:31:00.445Z,31.47
2018-07-27T16:33:26.442Z,31.47
2018-07-27T16:35:52.453Z,31.55
2018-07-27T16:38:18.444Z,31.57
2018-07-27T16:40:44.471Z,31.58
2018-07-27T16:43:10.419Z,31.58
2018-07-27T16:45:36.363Z,31.66
2018-07-27T16:48:03.351Z,31.61
2018-07-27T16:50:32.480Z,31.55
2018-07-27T16:52:58.474Z,31.55
2018-07-27T16:55:24.492Z,31.55
2018-07-27T16:57:50.454Z,31.54
2018-07-27T17:00:18.628Z,31.60
2018-07-27T17:02:44.700Z,31.62
2018-07-27T17:05:11.706Z,31.59
2018-07-27T17:07:37.688Z,31.60
2018-07-27T17:10:07.212Z,31.59
2018-07-27T17:12:33.244Z,31.52
2018-07-27T17:14:59.226Z,31.53
2018-07-27T17:17:25.212Z,31.53
2018-07-27T17:19:51.237Z,31.50
2018-07-27T17:22:17.201Z,31.47
2018-07-27T17:24:43.260Z,31.30
2018-07-27T17:27:09.238Z,31.21
2018-07-27T17:29:35.211Z,31.18
2018-07-27T17:32:01.183Z,31.17
2018-07-27T17:34:27.384Z,31.11
2018-07-27T17:36:53.538Z,31.05
2018-07-27T17:39:19.608Z,31.00
2018-07-27T17:41:46.813Z,30.97
2018-07-27T17:44:12.889Z,30.99
2018-07-27T17:46:39.637Z,30.91
2018-07-27T17:49:06.926Z,30.90
2018-07-27T17:51:32.906Z,31.04
2018-07-27T17:53:58.952Z,31.10
2018-07-27T17:56:25.008Z,31.01
2018-07-27T17:58:51.039Z,30.88
2018-07-27T18:01:17.291Z,30.82
2018-07-27T18:03:43.424Z,30.95
2018-07-27T18:08:53.093Z,30.83
2018-07-27T18:11:19.216Z,30.83
2018-07-27T18:13:46.163Z,30.87
2018-07-27T18:16:12.200Z,30.92
2018-07-27T18:18:38.271Z,30.85
2018-07-27T18:21:04.284Z,30.54
2018-07-27T18:23:30.264Z,30.08
2018-07-27T18:25:56.237Z,29.83
2018-07-27T18:28:22.173Z,29.72
2018-07-27T18:30:48.153Z,29.56
2018-07-27T18:33:14.141Z,29.42
2018-07-27T18:35:40.119Z,29.35
2018-07-27T18:38:06.128Z,29.77
2018-07-27T18:40:32.088Z,29.50
2018-07-27T18:42:58.052Z,29.30
2018-07-27T18:45:24.016Z,28.94
2018-07-27T18:47:49.973Z,28.91
2018-07-27T18:50:16.016Z,29.15
2018-07-27T18:52:42.123Z,29.20
2018-07-27T18:55:08.098Z,29.17
2018-07-27T18:57:34.034Z,29.19
2018-07-27T18:59:59.992Z,29.18
2018-07-27T19:02:25.969Z,29.20
2018-07-27T19:04:52.003Z,29.15
2018-07-27T19:07:18.139Z,29.17
2018-07-27T19:09:44.046Z,29.15
2018-07-27T19:12:10.028Z,29.37
2018-07-27T19:14:35.991Z,29.59
2018-07-27T19:17:01.945Z,29.70
2018-07-27T19:19:27.892Z,29.78
2018-07-27T19:24:26.208Z,29.82
2018-07-27T19:26:52.199Z,29.86
2018-07-27T19:29:18.794Z,29.80
2018-07-27T19:31:44.754Z,29.54
2018-07-27T19:34:10.808Z,29.17
2018-07-27T19:36:36.816Z,29.17
2018-07-27T19:39:02.827Z,29.08
2018-07-27T19:41:28.898Z,29.28
2018-07-27T19:43:54.981Z,29.38
2018-07-27T19:46:20.933Z,29.37
2018-07-27T19:48:46.937Z,29.22
2018-07-27T19:51:12.911Z,29.20
2018-07-27T19:53:38.895Z,29.46
2018-07-27T19:56:04.881Z,29.56
2018-07-27T20:03:38.932Z,28.77
2018-07-27T20:06:04.895Z,28.54
2018-07-27T20:08:30.880Z,28.36
2018-07-27T20:10:56.878Z,28.37
2018-07-27T20:13:22.830Z,28.58
2018-07-27T20:15:48.848Z,28.51
2018-07-27T20:18:14.882Z,28.49
2018-07-27T20:20:40.863Z,28.56
2018-07-27T20:23:09.968Z,28.70
2018-07-27T20:25:37.971Z,28.96
2018-07-27T20:28:03.993Z,28.98
2018-07-27T20:30:29.974Z,29.05
2018-07-27T20:32:55.939Z,29.19
2018-07-27T20:35:21.919Z,29.22
2018-07-27T20:37:47.868Z,29.08
2018-07-27T20:40:15.898Z,28.86
2018-07-27T20:42:41.870Z,28.91
2018-07-27T20:45:07.926Z,28.90
2018-07-27T20:47:33.922Z,28.66
2018-07-27T20:49:59.893Z,28.58
2018-07-27T20:52:25.875Z,28.62
2018-07-27T20:54:51.805Z,28.77
2018-07-27T20:57:17.824Z,28.72
2018-07-27T20:59:43.860Z,28.80
2018-07-27T21:02:09.872Z,28.85
2018-07-27T21:04:35.879Z,28.75
2018-07-27T21:07:01.845Z,28.64
2018-07-27T21:09:27.842Z,28.60
2018-07-27T21:11:53.834Z,28.60
2018-07-27T21:14:19.845Z,28.66
2018-07-27T21:16:45.823Z,28.55
2018-07-27T21:19:11.882Z,28.31
2018-07-27T21:21:37.949Z,28.30
2018-07-27T21:24:03.881Z,28.37
2018-07-27T21:26:32.465Z,28.67
2018-07-27T21:28:58.517Z,28.55
2018-07-27T21:31:24.510Z,28.46
2018-07-27T21:33:50.475Z,28.56
2018-07-27T21:36:16.433Z,28.50
2018-07-27T21:38:42.450Z,28.28
2018-07-27T21:41:09.309Z,28.08
2018-07-27T21:43:36.682Z,28.06
2018-07-27T21:46:02.678Z,28.15
2018-07-27T21:48:28.679Z,28.01
2018-07-27T21:50:54.677Z,27.98
2018-07-27T21:53:20.714Z,27.80
2018-07-27T21:55:46.644Z,27.62
2018-07-27T21:58:12.589Z,27.69
2018-07-27T22:00:38.590Z,27.70
2018-07-27T22:03:04.562Z,27.80
2018-07-27T22:05:30.526Z,27.69
2018-07-27T22:07:56.541Z,27.90
2018-07-27T22:10:22.553Z,27.91
2018-07-27T22:12:48.571Z,28.01
2018-07-27T22:15:14.656Z,27.94
2018-07-27T22:17:40.696Z,28.08
2018-07-27T22:20:06.712Z,28.00
2018-07-27T22:22:32.675Z,27.84
2018-07-27T22:24:58.640Z,27.74
2018-07-27T22:27:25.364Z,27.78
2018-07-27T22:29:51.446Z,27.80
2018-07-27T22:32:17.494Z,27.90
2018-07-27T22:34:43.580Z,27.79
2018-07-27T22:37:09.619Z,27.42
2018-07-27T22:39:35.679Z,27.43
2018-07-27T22:42:01.724Z,27.31
2018-07-27T22:44:27.758Z,27.38
2018-07-27T22:46:53.728Z,27.50
2018-07-27T22:49:19.694Z,27.56
2018-07-27T22:51:45.677Z,27.32
2018-07-27T22:54:11.641Z,27.31
2018-07-27T22:56:37.584Z,27.51
2018-07-27T22:59:03.534Z,27.61
2018-07-27T23:01:29.499Z,27.67
2018-07-27T23:03:55.448Z,27.59
2018-07-27T23:06:21.455Z,27.74
2018-07-27T23:08:47.426Z,27.58
2018-07-27T23:11:13.394Z,27.32
2018-07-27T23:13:39.366Z,27.38
2018-07-27T23:16:05.352Z,27.62
2018-07-27T23:18:31.326Z,27.65
2018-07-27T23:20:57.280Z,27.75
2018-07-27T23:23:23.222Z,27.73
2018-07-27T23:25:49.176Z,27.57
2018-07-27T23:28:15.112Z,27.52
2018-07-27T23:30:41.096Z,27.39
2018-07-27T23:33:07.089Z,27.53
2018-07-27T23:35:33.060Z,27.51
2018-07-27T23:37:59.049Z,27.46
2018-07-27T23:40:25.010Z,27.50
2018-07-27T23:42:50.996Z,27.42
2018-07-27T23:45:16.980Z,27.36
2018-07-27T23:47:42.957Z,27.23
2018-07-27T23:50:08.933Z,27.20
2018-07-27T23:52:35.151Z,27.18
2018-07-27T23:55:01.132Z,27.20
2018-07-27T23:57:27.110Z,27.23
2018-07-27T23:59:53.092Z,27.39
